Time;durP1;ratioP1;P1;durP2;ratioP2;P2;SDS_P1;SDS_P2;PMS_P1;PMS_P2;Temp;Humidity;BMP_temperature;BMP_pressure;BME280_temperature;BME280_humidity;BME280_pressure;Samples;Min_cycle;Max_cycle;Signal;HPM_P1;HPM_P2
2022/09/13 00:01:59;;;;;;;9.52;5.85;;;;;;;19.02;67.53;100897.59;6072595;23;20069;-92
2022/09/13 00:07:48;;;;;;;8.85;6.40;;;;;;;18.79;69.14;100878.75;6101042;23;20041;-91
2022/09/13 00:10:59;;;;;;;;;;;;;;;;;;;;;
2022/09/13 00:16:58;;;;;;;9.95;5.90;;;;;;;19.09;68.07;100880.09;6127436;23;20008;-92
2022/09/13 00:22:44;;;;;;;6.78;5.90;;;;;;;18.99;69.16;100871.06;6127440;23;20009;-90
2022/09/13 00:25:22;;;;;;;7.68;5.80;;;;;;;18.96;69.12;100868.59;6126202;23;20010;-91
2022/09/13 00:31:15;;;;;;;8.90;5.97;;;;;;;18.99;68.40;100858.50;6127347;23;20017;-90
2022/09/13 00:33:41;;;;;;;9.63;5.63;;;;;;;19.21;68.22;100872.94;6126184;23;20445;-90
2022/09/13 00:39:35;;;;;;;7.13;6.05;;;;;;;19.10;68.18;100876.44;6127015;23;20009;-90
2022/09/13 00:45:22;;;;;;;7.63;5.78;;;;;;;18.98;69.46;100861.28;6126874;23;20342;-92
2022/09/13 00:48:11;;;;;;;10.20;6.38;;;;;;;18.66;69.24;100842.25;6125260;23;20010;-91
2022/09/13 00:50:44;;;;;;;10.88;6.20;;;;;;;18.58;68.95;100840.97;6126627;23;20057;-91
2022/09/13 00:53:28;;;;;;;8.82;6.30;;;;;;;18.59;69.22;100837.31;6125682;23;20013;-90
2022/09/13 00:56:26;;;;;;;6.35;5.60;;;;;;;18.71;70.02;100851.69;6127315;23;20057;-91
2022/09/13 00:59:06;;;;;;;7.28;5.43;;;;;;;18.78;69.94;100852.91;6087475;23;20448;-92
2022/09/13 01:01:43;;;;;;;6.30;5.70;;;;;;;18.52;69.71;100829.88;6124827;23;20141;-91
2022/09/13 01:07:34;;;;;;;7.32;6.18;;;;;;;18.34;71.08;100818.69;6126866;23;20028;-90
2022/09/13 01:10:10;;;;;;;6.20;5.53;;;;;;;18.50;69.94;100848.72;6124917;23;20018;-91
2022/09/13 01:15:51;;;;;;;9.00;6.35;;;;;;;18.67;68.97;100850.16;6111320;23;20012;-92
2022/09/13 01:18:17;;;;;;;11.25;5.95;;;;;;;18.60;67.95;100835.50;6125018;23;20413;-91
2022/09/13 01:24:23;;;;;;;9.02;6.07;;;;;;;18.75;68.24;100853.16;6126855;23;20012;-91
2022/09/13 01:27:20;;;;;;;8.52;6.03;;;;;;;18.69;68.18;100839.34;6126387;23;20009;-92
2022/09/13 01:30:06;;;;;;;8.10;6.55;;;;;;;18.79;68.97;100848.41;6125027;23;20010;-91
2022/09/13 01:36:36;;;;;;;6.20;5.45;;;;;;;19.07;67.70;100849.88;6095046;23;20065;-91
2022/09/13 01:42:57;;;;;;;7.35;5.90;;;;;;;19.22;68.49;100850.56;6094695;23;20076;-91
2022/09/13 01:46:05;;;;;;;12.63;6.65;;;;;;;19.11;68.24;100843.31;6070300;23;20009;-92
2022/09/13 01:48:36;;;;;;;7.82;6.28;;;;;;;19.07;68.79;100845.41;6070364;23;20156;-90
2022/09/13 01:51:12;;;;;;;8.43;5.85;;;;;;;19.08;68.28;100844.41;6095101;23;20006;-91
2022/09/13 01:57:26;;;;;;;10.73;7.03;;;;;;;18.71;68.49;100840.97;6094817;23;20031;-92
2022/09/13 02:00:09;;;;;;;8.13;6.68;;;;;;;18.67;68.26;100836.75;6070528;23;20454;-92
2022/09/13 02:06:35;;;;;;;9.25;7.32;;;;;;;18.92;67.84;100843.00;6105079;23;20009;-91
2022/09/13 02:16:12;;;;;;;9.68;6.97;;;;;;;18.68;69.08;100832.25;6096917;23;20442;-91
2022/09/13 02:22:32;;;;;;;7.55;5.57;;;;;;;18.79;69.38;100830.53;6097254;23;20054;-91
2022/09/13 02:28:54;;;;;;;8.82;6.40;;;;;;;18.85;68.46;100848.81;6097061;23;20097;-91
2022/09/13 02:42:06;;;;;;;10.27;6.03;;;;;;;18.86;68.47;100837.13;6037306;23;20009;-91
2022/09/13 02:45:03;;;;;;;7.30;6.05;;;;;;;18.77;68.89;100839.66;6013378;23;20039;-92
2022/09/13 02:47:56;;;;;;;7.13;5.90;;;;;;;18.73;70.68;100848.88;6012718;23;20007;-91
2022/09/13 02:54:25;;;;;;;8.38;6.00;;;;;;;18.90;70.08;100861.03;6036964;23;20015;-91
2022/09/13 02:57:31;;;;;;;6.65;5.60;;;;;;;18.86;69.54;100860.38;6013238;23;20065;-91
2022/09/13 03:00:05;;;;;;;6.82;5.45;;;;;;;18.64;70.78;100863.75;6036693;23;20039;-92
2022/09/13 03:05:53;;;;;;;6.85;5.03;;;;;;;18.52;71.18;100849.47;6084462;23;20013;-90
2022/09/13 03:08:30;;;;;;;6.13;5.28;;;;;;;18.56;70.28;100842.06;6071009;23;20006;-91
2022/09/13 03:14:36;;;;;;;7.25;5.57;;;;;;;18.68;68.08;100832.25;6126355;23;20009;-91
2022/09/13 03:17:43;;;;;;;8.40;5.78;;;;;;;18.77;68.63;100835.13;6125352;23;20433;-92
2022/09/13 03:20:19;;;;;;;8.00;5.32;;;;;;;18.78;68.54;100838.66;6109015;23;20006;-90
2022/09/13 03:23:06;;;;;;;6.80;5.97;;;;;;;18.98;68.82;100866.63;6124023;23;20014;-91
2022/09/13 03:29:07;;;;;;;6.85;5.72;;;;;;;18.88;69.82;100852.22;6125762;23;20018;-90
2022/09/13 03:35:16;;;;;;;7.05;5.43;;;;;;;18.73;70.26;100836.34;6125681;23;20013;-90
2022/09/13 03:37:50;;;;;;;9.48;5.88;;;;;;;18.84;70.84;100843.59;6126050;23;20033;-91
2022/09/13 03:40:34;;;;;;;7.07;5.53;;;;;;;18.82;69.80;100834.78;6126860;23;20330;-91
2022/09/13 03:43:11;;;;;;;7.38;5.43;;;;;;;18.89;69.38;100836.06;6125599;23;20006;-91
2022/09/13 03:45:43;;;;;;;7.63;6.20;;;;;;;18.75;69.50;100813.00;6125308;23;20010;-91
2022/09/13 03:48:09;;;;;;;6.72;6.00;;;;;;;18.85;69.15;100834.56;6124936;23;20010;-91
2022/09/13 03:50:35;;;;;;;8.07;6.65;;;;;;;18.73;69.46;100817.59;6126449;23;20457;-91
2022/09/13 03:53:07;;;;;;;7.65;6.10;;;;;;;18.80;70.59;100829.56;6126350;23;20347;-91
2022/09/13 03:55:37;;;;;;;6.45;5.82;;;;;;;18.76;69.42;100824.56;6124990;23;20016;-91
2022/09/13 03:58:02;;;;;;;6.78;6.00;;;;;;;18.78;69.26;100822.59;6125651;23;20030;-93
2022/09/13 04:00:28;;;;;;;6.93;5.97;;;;;;;18.76;69.93;100822.72;6125445;23;20033;-90
2022/09/13 04:02:54;;;;;;;8.70;6.78;;;;;;;18.86;69.30;100837.13;6125069;23;20006;-91
2022/09/13 04:05:19;;;;;;;8.90;6.18;;;;;;;18.76;69.29;100828.09;6124935;23;20002;-92
2022/09/13 04:07:45;;;;;;;9.75;6.10;;;;;;;18.73;69.83;100816.72;6126642;23;20080;-92
2022/09/13 04:10:10;;;;;;;9.60;6.00;;;;;;;18.73;69.09;100827.44;6124498;23;20018;-92
2022/09/13 04:12:36;;;;;;;6.50;5.75;;;;;;;18.78;69.22;100836.00;6150350;23;20028;-92
2022/09/13 04:15:02;;;;;;;7.72;6.35;;;;;;;18.78;68.96;100849.38;6125110;23;20009;-92
2022/09/13 04:17:27;;;;;;;8.20;6.63;;;;;;;18.62;69.72;100833.56;6124408;23;20009;-92
2022/09/13 04:19:52;;;;;;;9.70;6.43;;;;;;;18.72;68.75;100852.53;6123879;23;20037;-91
2022/09/13 04:22:18;;;;;;;8.38;6.45;;;;;;;18.68;70.46;100859.91;6124150;23;20012;-91
2022/09/13 04:24:43;;;;;;;8.93;6.55;;;;;;;18.49;70.24;100843.47;6123429;23;20017;-91
2022/09/13 04:27:09;;;;;;;9.10;6.18;;;;;;;18.66;69.32;100872.56;6124512;23;20021;-90
2022/09/13 04:29:34;;;;;;;7.75;6.15;;;;;;;18.44;69.76;100854.53;6124114;23;20414;-93
2022/09/13 04:32:03;;;;;;;7.30;6.50;;;;;;;18.26;71.04;100847.81;6123562;23;20339;-92
2022/09/13 04:34:33;;;;;;;9.52;6.47;;;;;;;18.44;71.05;100883.97;6124973;23;20010;-91
2022/09/13 04:36:59;;;;;;;7.20;6.50;;;;;;;18.25;71.59;100862.19;6125737;23;20002;-90
2022/09/13 04:39:44;;;;;;;9.98;6.90;;;;;;;18.40;70.05;100886.97;6125199;23;20391;-91
2022/09/13 04:42:10;;;;;;;8.23;6.72;;;;;;;18.27;71.60;100877.13;6125347;23;20002;-91
2022/09/13 04:44:54;;;;;;;10.77;7.78;;;;;;;18.12;70.28;100858.66;6126443;23;20002;-92
2022/09/13 04:47:55;;;;;;;9.20;6.82;;;;;;;18.28;69.87;100894.09;6125128;23;20009;-92
2022/09/13 04:50:21;;;;;;;8.15;6.80;;;;;;;18.08;70.99;100863.38;6125294;23;20430;-91
2022/09/13 04:53:36;;;;;;;10.65;6.90;;;;;;;18.31;70.19;100892.03;6125075;23;20375;-92
2022/09/13 04:56:08;;;;;;;11.07;7.53;;;;;;;18.30;70.37;100893.00;6125140;23;20017;-92
2022/09/13 04:59:16;;;;;;;7.22;6.53;;;;;;;18.41;70.54;100891.34;6125065;23;20392;-91
2022/09/13 05:05:05;;;;;;;;;;;;;;;18.53;68.68;100894.00;6064468;23;20079;-91
2022/09/13 05:07:33;;;;;;;8.88;7.10;;;;;;;18.26;69.61;100870.09;6125204;23;19913;-92
2022/09/13 05:10:37;;;;;;;9.82;7.30;;;;;;;18.45;68.60;100890.16;6113223;23;20510;-92
2022/09/13 05:16:34;;;;;;;10.27;6.43;;;;;;;18.49;69.32;100897.03;6096839;23;20016;-93
2022/09/13 05:19:03;;;;;;;13.15;7.90;;;;;;;18.24;70.93;100864.00;6097001;23;19998;-92
2022/09/13 05:21:37;;;;;;;11.38;7.82;;;;;;;18.30;70.21;100879.59;6071405;23;20427;-91
2022/09/13 05:24:03;;;;;;;11.93;8.20;;;;;;;18.28;70.88;100873.53;6070607;23;20395;-91
2022/09/13 05:26:32;;;;;;;9.07;7.30;;;;;;;18.40;70.80;100881.63;6069715;23;20030;-91
2022/09/13 05:29:03;;;;;;;10.27;7.32;;;;;;;18.39;70.98;100878.09;6094343;23;20006;-92
2022/09/13 05:31:32;;;;;;;10.40;8.10;;;;;;;18.35;71.41;100885.47;6070301;23;20426;-91
2022/09/13 05:34:06;;;;;;;11.50;7.60;;;;;;;18.34;70.49;100889.13;6071363;23;20077;-91
2022/09/13 05:36:37;;;;;;;10.00;8.13;;;;;;;18.38;71.00;100895.13;6094582;23;20089;-92
2022/09/13 05:39:04;;;;;;;12.02;7.63;;;;;;;18.27;70.98;100866.44;6071068;23;20114;-91
2022/09/13 05:41:29;;;;;;;12.48;8.07;;;;;;;18.43;71.24;100887.63;6096455;23;20077;-92
2022/09/13 05:43:55;;;;;;;9.27;8.10;;;;;;;18.48;71.31;100896.16;6070995;23;20320;-92
2022/09/13 05:47:16;;;;;;;9.30;7.72;;;;;;;18.65;69.90;100908.31;6070519;23;20375;-91
2022/09/13 05:49:42;;;;;;;10.50;7.93;;;;;;;18.46;70.84;100871.31;6093180;23;20029;-93
2022/09/13 05:52:07;;;;;;;11.88;8.18;;;;;;;18.59;70.66;100884.66;6071031;23;20010;-92
2022/09/13 05:54:36;;;;;;;10.95;8.23;;;;;;;18.57;70.35;100882.13;6070642;23;20034;-92
2022/09/13 05:57:31;;;;;;;13.45;8.60;;;;;;;18.76;69.94;100907.59;6070284;23;20021;-92
2022/09/13 06:00:02;;;;;;;12.00;9.48;;;;;;;18.47;71.80;100883.75;6095879;23;20013;-92
2022/09/13 06:02:29;;;;;;;10.63;8.63;;;;;;;18.33;71.39;100875.88;6070449;23;20342;-92
2022/09/13 06:04:55;;;;;;;9.98;8.27;;;;;;;18.31;72.31;100878.63;6070902;23;20061;-92
2022/09/13 06:10:41;;;;;;;11.95;9.25;;;;;;;18.39;70.79;100885.28;6096161;23;20021;-92
2022/09/13 06:13:24;;;;;;;11.65;9.00;;;;;;;18.43;70.29;100876.06;6070516;23;20014;-92
2022/09/13 06:15:53;;;;;;;11.25;8.60;;;;;;;18.60;70.80;100894.41;6070236;23;20093;-91
2022/09/13 06:18:19;;;;;;;13.90;8.98;;;;;;;18.67;71.47;100884.97;6070434;23;20006;-91
2022/09/13 06:20:44;;;;;;;11.95;8.63;;;;;;;18.67;71.42;100874.25;6070194;23;20028;-92
2022/09/13 06:23:12;;;;;;;13.75;10.30;;;;;;;18.77;70.88;100898.56;6095970;23;20006;-91
2022/09/13 06:25:46;;;;;;;13.80;10.48;;;;;;;18.78;70.70;100894.91;6070833;23;20331;-91
2022/09/13 06:28:12;;;;;;;15.65;9.43;;;;;;;18.86;71.60;100880.00;6069943;23;20010;-92
2022/09/13 06:30:37;;;;;;;10.68;8.05;;;;;;;18.94;70.63;100879.44;6070439;23;20022;-92
2022/09/13 06:33:56;;;;;;;11.55;8.68;;;;;;;19.20;69.79;100901.59;6070485;23;20013;-91
2022/09/13 06:36:21;;;;;;;13.15;9.80;;;;;;;19.17;71.75;100880.38;6070871;23;20124;-92
2022/09/13 06:38:47;;;;;;;11.68;9.35;;;;;;;19.19;71.68;100885.63;6071073;23;20003;-91
2022/09/13 06:41:19;;;;;;;13.43;9.15;;;;;;;19.09;71.69;100867.56;6070781;23;20006;-91
2022/09/13 06:43:58;;;;;;;12.27;9.43;;;;;;;19.36;70.28;100887.88;6070758;23;20006;-92
2022/09/13 06:46:30;;;;;;;14.18;11.43;;;;;;;19.24;71.29;100868.22;6070303;23;20299;-93
2022/09/13 06:49:11;;;;;;;12.95;11.55;;;;;;;19.45;70.12;100883.66;6069708;23;20118;-92
2022/09/13 06:55:28;;;;;;;18.67;13.27;;;;;;;19.72;68.81;100894.09;6096646;23;20426;-92
2022/09/13 06:57:53;;;;;;;18.52;13.40;;;;;;;19.68;68.35;100889.94;6071001;23;20089;-91
2022/09/13 07:00:29;;;;;;;20.58;14.25;;;;;;;19.74;69.22;100882.28;6096705;23;20026;-91
2022/09/13 07:02:55;;;;;;;22.90;15.70;;;;;;;19.87;67.90;100895.59;6071042;23;20326;-93
2022/09/13 07:08:44;;;;;;;19.40;16.23;;;;;;;19.88;66.53;100873.16;6096156;23;20100;-92
2022/09/13 07:11:29;;;;;;;17.90;15.98;;;;;;;20.13;66.78;100899.75;6081811;23;20028;-92
2022/09/13 07:14:29;;;;;;;19.92;17.00;;;;;;;20.26;66.20;100899.63;6126574;23;20027;-91
2022/09/13 07:16:55;;;;;;;18.58;15.43;;;;;;;20.33;65.20;100890.13;6117178;23;20010;-92
2022/09/13 07:19:28;;;;;;;21.63;16.08;;;;;;;20.36;65.00;100876.44;6122086;23;20006;-91
2022/09/13 07:21:55;;;;;;;22.17;17.20;;;;;;;20.52;64.24;100872.56;6094817;23;20006;-94
2022/09/13 07:24:29;;;;;;;18.95;17.05;;;;;;;20.65;64.40;100881.28;6092494;23;20003;-92
2022/09/13 07:27:06;;;;;;;21.10;17.48;;;;;;;20.77;64.82;100872.25;6096556;23;20031;-91
2022/09/13 07:29:31;;;;;;;22.40;17.05;;;;;;;20.93;64.46;100885.25;6094802;23;20093;-91
2022/09/13 07:31:57;;;;;;;20.35;17.88;;;;;;;20.98;63.65;100880.34;6099758;23;20002;-92
2022/09/13 07:34:24;;;;;;;21.55;18.45;;;;;;;21.14;63.53;100886.16;6092673;23;20319;-91
2022/09/13 07:36:51;;;;;;;23.48;18.70;;;;;;;21.15;63.98;100895.06;6090112;23;20017;-91
2022/09/13 07:39:20;;;;;;;25.98;19.23;;;;;;;21.22;64.08;100887.38;6092800;23;20426;-91
2022/09/13 07:41:47;;;;;;;20.80;18.35;;;;;;;21.36;63.25;100901.38;6088527;23;20014;-91
2022/09/13 07:44:13;;;;;;;24.23;19.50;;;;;;;21.58;62.66;100908.47;6091335;23;20266;-90
2022/09/13 07:46:40;;;;;;;22.45;19.60;;;;;;;21.76;62.29;100908.72;6088328;23;20074;-90
2022/09/13 07:49:07;;;;;;;25.98;20.55;;;;;;;22.04;61.04;100909.03;6088164;23;20065;-92
2022/09/13 07:51:35;;;;;;;27.30;20.83;;;;;;;22.21;60.70;100908.44;6089676;23;20006;-92
2022/09/13 07:54:04;;;;;;;25.80;19.60;;;;;;;22.46;60.88;100914.34;6091281;23;20017;-92
2022/09/13 07:56:31;;;;;;;25.48;19.27;;;;;;;;;;6090209;23;20172;-91
2022/09/13 07:58:59;;;;;;;27.30;20.08;;;;;;;22.81;59.56;100927.38;6088508;23;20002;-91
2022/09/13 08:01:27;;;;;;;29.08;19.23;;;;;;;22.83;58.97;100909.19;6091244;23;20022;-92
2022/09/13 08:03:54;;;;;;;24.80;19.80;;;;;;;23.14;58.70;100926.16;6090838;23;20010;-87
2022/09/13 08:06:20;;;;;;;25.50;20.13;;;;;;;23.17;58.37;100929.44;6091726;23;20353;-88
2022/09/13 08:08:46;;;;;;;28.50;20.20;;;;;;;23.27;58.16;100920.47;6091108;23;20034;-86
2022/09/13 08:11:19;;;;;;;27.73;21.35;;;;;;;23.48;58.26;100934.69;6082499;23;20032;-87
2022/09/13 08:13:46;;;;;;;27.08;20.45;;;;;;;23.55;57.36;100921.44;6037074;23;20461;-87
2022/09/13 08:16:12;;;;;;;28.48;20.55;;;;;;;23.82;57.59;100935.09;6061668;23;20011;-89
2022/09/13 08:18:49;;;;;;;32.33;21.55;;;;;;;23.98;56.74;100925.53;6035414;23;20003;-87
2022/09/13 08:21:14;;;;;;;28.45;20.92;;;;;;;24.15;55.86;100936.44;6059474;23;20029;-87
2022/09/13 08:23:40;;;;;;;24.60;19.52;;;;;;;24.31;55.43;100930.41;6061873;23;20003;-86
2022/09/13 08:26:07;;;;;;;25.42;19.75;;;;;;;24.52;55.55;100937.44;6062234;23;20069;-87
2022/09/13 08:28:40;;;;;;;26.45;20.38;;;;;;;24.77;55.43;100934.06;6061412;23;20324;-87
2022/09/13 08:31:10;;;;;;;25.95;20.10;;;;;;;25.05;55.00;100928.63;6035043;23;20007;-87
2022/09/13 08:33:36;;;;;;;27.67;20.42;;;;;;;25.20;53.66;100940.63;6061958;23;20420;-87
2022/09/13 08:36:03;;;;;;;27.35;20.33;;;;;;;25.48;54.02;100943.25;6035229;23;20014;-87
2022/09/13 08:38:29;;;;;;;26.80;20.25;;;;;;;25.67;52.50;100945.78;6062546;23;20032;-87
2022/09/13 08:41:01;;;;;;;26.33;19.65;;;;;;;25.84;52.51;100942.22;6036816;23;20486;-87
2022/09/13 08:43:28;;;;;;;24.73;19.83;;;;;;;26.03;51.88;100948.44;6061870;23;20038;-87
2022/09/13 08:46:04;;;;;;;25.35;20.15;;;;;;;26.07;52.32;100942.56;6059487;23;20543;-88
2022/09/13 08:48:37;;;;;;;27.83;21.77;;;;;;;26.16;52.28;100952.44;6060448;23;20512;-87
2022/09/13 08:51:06;;;;;;;26.30;20.05;;;;;;;26.08;51.32;100956.94;6059744;23;20086;-87
2022/09/13 08:53:43;;;;;;;30.90;20.02;;;;;;;26.24;51.75;100950.78;6034274;23;20223;-87
2022/09/13 08:56:32;;;;;;;26.90;20.95;;;;;;;26.52;51.22;100946.88;6033151;23;20485;-87
2022/09/13 08:59:16;;;;;;;27.10;19.65;;;;;;;26.85;50.00;100950.56;6061520;23;20382;-86
2022/09/13 09:01:54;;;;;;;26.15;18.58;;;;;;;27.25;49.25;100946.28;6033497;23;20014;-86
2022/09/13 09:04:25;;;;;;;27.00;20.15;;;;;;;27.60;49.43;100947.81;6059931;23;20010;-87
2022/09/13 09:06:59;;;;;;;25.88;20.20;;;;;;;27.84;47.13;100933.44;6055596;23;20466;-87
2022/09/13 09:09:25;;;;;;;28.45;19.73;;;;;;;28.22;46.14;100936.41;6061290;23;20097;-86
2022/09/13 09:12:13;;;;;;;25.17;19.20;;;;;;;28.85;47.45;100935.47;6060498;23;20057;-87
2022/09/13 09:14:43;;;;;;;28.77;20.35;;;;;;;29.33;44.63;100930.78;6061828;23;20024;-87
2022/09/13 09:17:24;;;;;;;25.08;18.48;;;;;;;29.82;45.82;100922.22;6034993;23;20007;-88
2022/09/13 09:19:59;;;;;;;25.27;19.38;;;;;;;30.21;44.06;100923.84;6059451;23;20010;-87
2022/09/13 09:22:33;;;;;;;25.45;20.13;;;;;;;30.15;42.49;100924.63;6060535;23;20014;-87
2022/09/13 09:24:59;;;;;;;23.33;19.05;;;;;;;29.90;43.19;100910.38;6061786;23;20006;-87
2022/09/13 09:27:24;;;;;;;25.63;18.38;;;;;;;30.06;42.01;100917.53;6060697;23;20014;-88
2022/09/13 09:29:53;;;;;;;22.42;17.70;;;;;;;30.17;42.15;100920.69;6034854;23;20014;-87
2022/09/13 09:32:39;;;;;;;22.45;18.20;;;;;;;30.44;42.50;100918.31;6060255;23;20436;-88
2022/09/13 09:35:17;;;;;;;22.15;15.88;;;;;;;30.29;43.17;100921.03;6062800;23;20006;-87
2022/09/13 09:37:49;;;;;;;18.38;15.20;;;;;;;30.35;42.97;100920.28;6062121;23;20085;-87
2022/09/13 09:40:16;;;;;;;20.48;16.42;;;;;;;30.54;41.83;100924.31;6061515;23;20054;-87
2022/09/13 09:42:47;;;;;;;23.17;16.40;;;;;;;30.94;41.59;100925.69;6059944;23;20007;-87
2022/09/13 09:45:26;;;;;;;18.85;14.65;;;;;;;31.20;41.79;100927.84;6059966;23;20021;-87
2022/09/13 09:47:53;;;;;;;20.63;15.95;;;;;;;30.91;41.75;100931.50;6060196;23;20030;-87
2022/09/13 09:50:24;;;;;;;21.42;16.67;;;;;;;30.69;41.65;100932.50;6062140;23;20439;-86
2022/09/13 09:52:57;;;;;;;19.45;17.05;;;;;;;30.86;41.79;100920.31;6061920;23;20007;-87
2022/09/13 09:55:30;;;;;;;18.40;15.40;;;;;;;31.07;40.92;100932.34;6061987;23;20025;-87
2022/09/13 09:58:01;;;;;;;22.83;16.63;;;;;;;31.03;40.82;100928.28;6035128;23;20015;-88
2022/09/13 10:00:34;;;;;;;21.93;17.73;;;;;;;31.43;40.28;100922.22;6059853;23;20328;-87
2022/09/13 10:03:04;;;;;;;26.77;18.77;;;;;;;32.01;39.10;100924.81;6060155;23;20003;-87
2022/09/13 10:05:31;;;;;;;25.88;18.38;;;;;;;32.64;36.96;100917.41;6061702;23;20007;-88
2022/09/13 10:08:01;;;;;;;24.58;19.10;;;;;;;33.14;36.19;100928.94;6061121;23;20380;-87
2022/09/13 10:10:43;;;;;;;19.65;16.30;;;;;;;33.98;37.30;100916.56;6059985;23;20037;-86
2022/09/13 10:13:16;;;;;;;17.85;14.45;;;;;;;34.69;36.08;100918.47;6061312;23;20022;-87
2022/09/13 10:15:53;;;;;;;17.65;13.98;;;;;;;33.92;36.40;100922.88;6058175;23;20049;-87
2022/09/13 10:18:20;;;;;;;17.52;14.32;;;;;;;32.20;36.69;100928.72;6059038;23;20011;-86
2022/09/13 10:21:16;;;;;;;17.20;13.65;;;;;;;32.06;39.77;100918.75;6034147;23;20328;-88
2022/09/13 10:23:43;;;;;;;17.55;13.48;;;;;;;32.39;37.14;100911.59;6036650;23;20018;-86
2022/09/13 10:26:12;;;;;;;14.45;11.70;;;;;;;31.45;39.45;100914.66;6060517;23;20034;-86
2022/09/13 10:28:54;;;;;;;13.65;10.85;;;;;;;30.87;41.45;100915.72;6060509;23;20006;-86
2022/09/13 10:31:20;;;;;;;;;;;;;;;30.83;41.96;100920.72;6059619;23;20463;-86
2022/09/13 10:33:48;;;;;;;16.75;10.98;;;;;;;30.28;42.62;100927.53;6060735;23;19941;-87
2022/09/13 10:36:20;;;;;;;16.23;11.40;;;;;;;30.12;42.37;100916.78;6034150;23;20011;-87
2022/09/13 10:39:11;;;;;;;19.10;12.95;;;;;;;29.84;43.77;100917.41;6060558;23;20035;-87
2022/09/13 10:41:41;;;;;;;16.10;12.13;;;;;;;29.44;44.33;100910.44;6060934;23;20078;-86
2022/09/13 10:44:26;;;;;;;14.68;12.25;;;;;;;29.36;44.32;100913.22;6036247;23;20010;-86
2022/09/13 10:46:52;;;;;;;14.30;11.77;;;;;;;29.05;44.40;100903.25;6062319;23;20373;-86
2022/09/13 10:49:43;;;;;;;13.13;11.65;;;;;;;29.14;45.01;100914.91;6035867;23;20106;-87
2022/09/13 10:52:31;;;;;;;12.88;10.38;;;;;;;29.49;44.90;100914.28;6061160;23;20006;-86
2022/09/13 10:55:25;;;;;;;13.32;10.57;;;;;;;29.53;44.06;100913.94;6036736;23;20007;-87
2022/09/13 10:57:53;;;;;;;14.82;10.65;;;;;;;29.19;43.70;100918.81;6037917;23;20034;-86
2022/09/13 11:00:21;;;;;;;12.18;10.88;;;;;;;29.07;44.12;100914.78;6058603;23;20030;-87
2022/09/13 11:03:12;;;;;;;16.58;10.75;;;;;;;29.09;45.15;100903.72;6062047;23;20309;-88
2022/09/13 11:06:04;;;;;;;14.88;10.98;;;;;;;29.10;45.25;100903.56;6036791;23;20017;-86
2022/09/13 11:09:00;;;;;;;14.48;10.27;;;;;;;29.46;44.54;100895.59;6056550;23;20081;-88
2022/09/13 11:11:34;;;;;;;13.40;10.55;;;;;;;29.34;44.75;100891.63;6061213;23;20029;-87
2022/09/13 11:14:00;;;;;;;13.20;9.70;;;;;;;29.31;44.93;100885.69;6061261;23;20014;-87
2022/09/13 11:16:49;;;;;;;13.40;9.73;;;;;;;29.31;45.36;100888.41;6061615;23;20439;-87
2022/09/13 11:19:17;;;;;;;11.88;9.60;;;;;;;29.09;44.74;100884.66;6037235;23;20003;-88
2022/09/13 11:22:13;;;;;;;10.20;8.65;;;;;;;29.18;45.75;100878.97;6037271;23;20010;-87
2022/09/13 11:24:45;;;;;;;9.77;8.18;;;;;;;28.89;46.58;100882.38;6063011;23;20007;-86
2022/09/13 11:27:24;;;;;;;9.85;7.55;;;;;;;29.20;46.41;100881.53;6036520;23;20017;-86
2022/09/13 11:30:01;;;;;;;11.43;7.85;;;;;;;29.66;45.38;100876.06;6061625;23;20112;-87
2022/09/13 11:32:47;;;;;;;11.02;8.05;;;;;;;30.06;43.89;100873.91;6061783;23;20006;-88
2022/09/13 11:35:48;;;;;;;12.85;7.53;;;;;;;30.32;43.60;100877.03;6062953;23;20010;-87
2022/09/13 11:38:34;;;;;;;11.02;8.57;;;;;;;30.49;42.91;100874.91;6058935;23;20015;-87
2022/09/13 11:41:27;;;;;;;11.90;8.63;;;;;;;30.21;43.22;100881.06;6034969;23;20045;-86
2022/09/13 11:44:23;;;;;;;10.07;8.18;;;;;;;30.18;43.30;100875.16;6060946;23;20029;-86
2022/09/13 11:47:10;;;;;;;10.45;8.10;;;;;;;30.17;41.66;100876.19;6060228;23;20010;-86
2022/09/13 11:50:00;;;;;;;10.77;8.57;;;;;;;30.16;41.96;100880.78;6034857;23;20428;-86
2022/09/13 11:53:03;;;;;;;9.75;6.10;;;;;;;30.46;42.32;100875.31;6037011;23;20035;-86
2022/09/13 11:55:33;;;;;;;10.60;5.60;;;;;;;30.88;41.13;100873.75;6062708;23;20009;-86
2022/09/13 11:58:03;;;;;;;9.10;5.72;;;;;;;31.56;40.05;100877.75;6034977;23;20093;-86
2022/09/13 12:00:40;;;;;;;6.70;5.93;;;;;;;31.67;39.22;100876.38;6034948;23;20566;-87
2022/09/13 12:03:20;;;;;;;10.48;4.82;;;;;;;31.90;38.83;100859.75;6060760;23;20172;-87
2022/09/13 12:06:00;;;;;;;4.28;3.78;;;;;;;31.72;37.80;100862.94;6063398;23;20006;-86
2022/09/13 12:08:28;;;;;;;5.47;3.83;;;;;;;31.88;37.08;100859.09;6062644;23;20011;-86
2022/09/13 12:11:10;;;;;;;5.55;4.47;;;;;;;32.08;37.19;100870.97;6035723;23;20022;-86
2022/09/13 12:13:49;;;;;;;7.03;4.50;;;;;;;32.79;37.69;100867.09;6060507;23;20007;-88
2022/09/13 12:16:25;;;;;;;8.88;4.80;;;;;;;33.46;37.51;100867.03;6061346;23;20335;-87
2022/09/13 12:18:56;;;;;;;7.10;5.43;;;;;;;33.54;36.19;100868.72;6035037;23;20513;-87
2022/09/13 12:21:31;;;;;;;7.60;5.35;;;;;;;33.88;36.57;100859.38;6059439;23;20003;-87
2022/09/13 12:23:59;;;;;;;6.93;5.57;;;;;;;33.83;35.89;100861.91;6035968;23;20037;-87
2022/09/13 12:26:44;;;;;;;5.03;4.32;;;;;;;33.81;36.49;100855.81;6036335;23;20095;-85
2022/09/13 12:29:36;;;;;;;5.63;4.35;;;;;;;33.11;38.16;100852.66;6060605;23;20435;-85
2022/09/13 12:32:03;;;;;;;5.88;5.18;;;;;;;32.38;36.94;100859.81;6061583;23;20466;-87
2022/09/13 12:34:40;;;;;;;8.38;4.10;;;;;;;32.47;38.23;100848.47;6059087;23;20018;-86
2022/09/13 12:37:11;;;;;;;4.60;3.78;;;;;;;32.40;38.37;100849.47;6036878;23;20007;-86
2022/09/13 12:39:59;;;;;;;5.90;4.47;;;;;;;32.35;38.96;100846.47;6063479;23;20003;-86
2022/09/13 12:42:58;;;;;;;5.75;4.53;;;;;;;32.83;37.14;100855.53;6062073;23;20251;-86
2022/09/13 12:45:57;;;;;;;6.13;4.15;;;;;;;33.46;36.79;100850.56;6035499;23;20030;-86
2022/09/13 12:48:56;;;;;;;5.22;3.63;;;;;;;33.68;35.58;100845.72;5978291;23;20085;-86
2022/09/13 12:51:42;;;;;;;6.05;3.47;;;;;;;33.79;35.63;100846.09;6027972;23;20098;-86
2022/09/13 12:54:35;;;;;;;4.55;4.15;;;;;;;33.55;36.48;100850.38;6060266;23;20015;-91
2022/09/13 12:57:12;;;;;;;6.90;5.20;;;;;;;33.31;36.90;100846.34;6060303;23;20814;-86
2022/09/13 12:59:49;;;;;;;6.57;5.85;;;;;;;32.85;37.62;100847.09;6060171;23;20003;-87
2022/09/13 13:02:49;;;;;;;7.43;5.57;;;;;;;32.23;38.81;100848.97;6060786;23;20009;-86
2022/09/13 13:05:14;;;;;;;10.65;5.25;;;;;;;31.98;39.36;100857.66;6015771;23;20093;-86
2022/09/13 13:07:42;;;;;;;5.90;5.30;;;;;;;31.72;39.36;100852.84;6060883;23;20478;-86
2022/09/13 13:10:25;;;;;;;7.65;4.70;;;;;;;31.53;39.70;100853.56;6061006;23;20014;-85
2022/09/13 13:12:51;;;;;;;7.53;5.43;;;;;;;31.61;38.93;100844.34;6085629;23;20022;-85
2022/09/13 13:15:20;;;;;;;6.57;4.75;;;;;;;31.94;37.84;100848.19;6087478;23;20017;-86
2022/09/13 13:17:48;;;;;;;5.15;3.40;;;;;;;31.88;38.17;100846.25;6090066;23;20009;-88
2022/09/13 13:20:50;;;;;;;5.53;3.78;;;;;;;32.01;37.96;100850.97;6090908;23;20002;-86
2022/09/13 13:23:19;;;;;;;5.88;4.30;;;;;;;32.29;36.23;100839.94;6087703;23;20029;-86
2022/09/13 13:26:07;;;;;;;5.07;4.18;;;;;;;32.86;37.76;100838.66;6087134;23;20228;-86
2022/09/13 13:28:42;;;;;;;7.18;5.10;;;;;;;33.19;37.45;100837.88;6088127;23;20014;-86
2022/09/13 13:31:30;;;;;;;7.35;5.20;;;;;;;33.54;37.18;100824.84;6088312;23;20458;-86
2022/09/13 13:34:05;;;;;;;5.93;5.00;;;;;;;33.41;36.73;100841.28;6078426;23;20041;-86
2022/09/13 13:36:43;;;;;;;7.45;4.97;;;;;;;33.06;37.24;100838.72;6088321;23;20010;-87
2022/09/13 13:39:37;;;;;;;8.65;4.80;;;;;;;32.90;36.73;100841.84;6088671;23;20002;-86
2022/09/13 13:42:25;;;;;;;5.70;4.78;;;;;;;32.54;38.17;100840.28;6089657;23;20077;-86
2022/09/13 13:44:50;;;;;;;10.02;5.05;;;;;;;32.19;37.17;100837.59;6088997;23;20037;-85